sensor_id;sensor_type;location;lat;lon;timestamp;P1;durP1;ratioP1;P2;durP2;ratioP2
8831;SDS011;4452;50.756;4.472;2022-11-18T00:01:05;2.28;;;1.45;;
8831;SDS011;4452;50.756;4.472;2022-11-18T00:03:32;6.18;;;1.35;;
8831;SDS011;4452;50.756;4.472;2022-11-18T00:05:57;6.05;;;1.70;;
8831;SDS011;4452;50.756;4.472;2022-11-18T00:08:23;2.08;;;1.80;;
8831;SDS011;4452;50.756;4.472;2022-11-18T00:10:50;3.60;;;1.38;;
8831;SDS011;4452;50.756;4.472;2022-11-18T00:13:16;6.07;;;1.67;;
8831;SDS011;4452;50.756;4.472;2022-11-18T00:16:05;4.72;;;1.50;;
8831;SDS011;4452;50.756;4.472;2022-11-18T00:18:35;1.55;;;1.38;;
8831;SDS011;4452;50.756;4.472;2022-11-18T00:21:03;3.35;;;1.60;;
8831;SDS011;4452;50.756;4.472;2022-11-18T00:23:30;7.93;;;2.00;;
8831;SDS011;4452;50.756;4.472;2022-11-18T00:26:00;3.30;;;1.25;;
8831;SDS011;4452;50.756;4.472;2022-11-18T00:28:26;2.78;;;1.60;;
8831;SDS011;4452;50.756;4.472;2022-11-18T00:30:52;3.28;;;1.65;;
8831;SDS011;4452;50.756;4.472;2022-11-18T00:33:23;5.00;;;1.90;;
8831;SDS011;4452;50.756;4.472;2022-11-18T00:35:53;5.47;;;2.15;;
8831;SDS011;4452;50.756;4.472;2022-11-18T00:38:19;3.78;;;1.55;;
8831;SDS011;4452;50.756;4.472;2022-11-18T00:40:45;5.60;;;1.77;;
8831;SDS011;4452;50.756;4.472;2022-11-18T00:43:11;4.50;;;1.50;;
8831;SDS011;4452;50.756;4.472;2022-11-18T00:45:37;9.07;;;2.10;;
8831;SDS011;4452;50.756;4.472;2022-11-18T00:48:02;3.60;;;1.75;;
8831;SDS011;4452;50.756;4.472;2022-11-18T00:50:28;14.02;;;2.00;;
8831;SDS011;4452;50.756;4.472;2022-11-18T00:52:54;1.75;;;1.40;;
8831;SDS011;4452;50.756;4.472;2022-11-18T00:55:20;4.93;;;1.85;;
8831;SDS011;4452;50.756;4.472;2022-11-18T00:57:45;4.28;;;2.38;;
8831;SDS011;4452;50.756;4.472;2022-11-18T01:00:11;3.10;;;2.05;;
8831;SDS011;4452;50.756;4.472;2022-11-18T01:02:37;6.25;;;1.90;;
8831;SDS011;4452;50.756;4.472;2022-11-18T01:05:03;5.65;;;1.65;;
8831;SDS011;4452;50.756;4.472;2022-11-18T01:07:29;5.45;;;1.85;;
8831;SDS011;4452;50.756;4.472;2022-11-18T01:09:54;5.28;;;2.00;;
8831;SDS011;4452;50.756;4.472;2022-11-18T01:12:21;4.82;;;1.73;;
8831;SDS011;4452;50.756;4.472;2022-11-18T01:15:05;3.85;;;1.63;;
8831;SDS011;4452;50.756;4.472;2022-11-18T01:17:31;4.88;;;1.70;;
8831;SDS011;4452;50.756;4.472;2022-11-18T01:19:57;1.73;;;1.63;;
8831;SDS011;4452;50.756;4.472;2022-11-18T01:22:23;5.75;;;2.00;;
8831;SDS011;4452;50.756;4.472;2022-11-18T01:24:49;12.88;;;1.50;;
8831;SDS011;4452;50.756;4.472;2022-11-18T01:27:15;1.90;;;1.73;;
8831;SDS011;4452;50.756;4.472;2022-11-18T01:29:40;4.65;;;2.13;;
8831;SDS011;4452;50.756;4.472;2022-11-18T01:32:06;4.15;;;2.10;;
8831;SDS011;4452;50.756;4.472;2022-11-18T01:34:31;9.13;;;2.13;;
8831;SDS011;4452;50.756;4.472;2022-11-18T01:36:57;4.05;;;1.90;;
8831;SDS011;4452;50.756;4.472;2022-11-18T01:39:23;2.75;;;1.50;;
8831;SDS011;4452;50.756;4.472;2022-11-18T01:41:49;4.72;;;1.77;;
8831;SDS011;4452;50.756;4.472;2022-11-18T01:47:20;5.93;;;2.47;;
8831;SDS011;4452;50.756;4.472;2022-11-18T01:49:47;7.65;;;1.88;;
8831;SDS011;4452;50.756;4.472;2022-11-18T01:52:13;5.50;;;2.13;;
8831;SDS011;4452;50.756;4.472;2022-11-18T01:54:39;5.85;;;2.10;;
8831;SDS011;4452;50.756;4.472;2022-11-18T01:57:09;3.00;;;1.83;;
8831;SDS011;4452;50.756;4.472;2022-11-18T01:59:39;2.80;;;1.80;;
8831;SDS011;4452;50.756;4.472;2022-11-18T02:02:07;6.43;;;2.05;;
8831;SDS011;4452;50.756;4.472;2022-11-18T02:04:36;4.03;;;2.00;;
8831;SDS011;4452;50.756;4.472;2022-11-18T02:07:07;3.60;;;1.90;;
8831;SDS011;4452;50.756;4.472;2022-11-18T02:09:35;2.47;;;1.95;;
8831;SDS011;4452;50.756;4.472;2022-11-18T02:12:01;4.10;;;1.55;;
8831;SDS011;4452;50.756;4.472;2022-11-18T02:14:31;3.65;;;2.17;;
8831;SDS011;4452;50.756;4.472;2022-11-18T02:17:10;4.68;;;1.95;;
8831;SDS011;4452;50.756;4.472;2022-11-18T02:22:18;11.88;;;2.40;;
8831;SDS011;4452;50.756;4.472;2022-11-18T02:28:07;2.17;;;1.25;;
8831;SDS011;4452;50.756;4.472;2022-11-18T02:30:48;5.05;;;2.58;;
8831;SDS011;4452;50.756;4.472;2022-11-18T02:33:51;7.00;;;2.33;;
8831;SDS011;4452;50.756;4.472;2022-11-18T02:36:38;5.07;;;1.80;;
8831;SDS011;4452;50.756;4.472;2022-11-18T02:39:09;4.22;;;2.00;;
8831;SDS011;4452;50.756;4.472;2022-11-18T02:41:43;6.05;;;2.70;;
8831;SDS011;4452;50.756;4.472;2022-11-18T02:44:12;3.75;;;2.30;;
8831;SDS011;4452;50.756;4.472;2022-11-18T02:46:40;8.45;;;2.75;;
8831;SDS011;4452;50.756;4.472;2022-11-18T02:49:13;2.55;;;2.28;;
8831;SDS011;4452;50.756;4.472;2022-11-18T02:51:44;9.13;;;3.08;;
8831;SDS011;4452;50.756;4.472;2022-11-18T02:54:11;3.10;;;2.33;;
8831;SDS011;4452;50.756;4.472;2022-11-18T02:56:39;6.75;;;3.05;;
8831;SDS011;4452;50.756;4.472;2022-11-18T02:59:06;5.68;;;2.72;;
8831;SDS011;4452;50.756;4.472;2022-11-18T03:01:32;5.20;;;2.72;;
8831;SDS011;4452;50.756;4.472;2022-11-18T03:03:59;4.15;;;2.67;;
8831;SDS011;4452;50.756;4.472;2022-11-18T03:06:30;4.10;;;2.78;;
8831;SDS011;4452;50.756;4.472;2022-11-18T03:11:38;4.87;;;3.50;;
8831;SDS011;4452;50.756;4.472;2022-11-18T03:14:16;2.85;;;2.63;;
8831;SDS011;4452;50.756;4.472;2022-11-18T03:17:54;2.38;;;2.15;;
8831;SDS011;4452;50.756;4.472;2022-11-18T03:22:27;3.15;;;2.33;;
8831;SDS011;4452;50.756;4.472;2022-11-18T03:25:08;8.98;;;3.70;;
8831;SDS011;4452;50.756;4.472;2022-11-18T03:27:51;10.88;;;3.88;;
8831;SDS011;4452;50.756;4.472;2022-11-18T03:30:26;8.25;;;4.13;;
8831;SDS011;4452;50.756;4.472;2022-11-18T03:33:01;8.38;;;4.10;;
8831;SDS011;4452;50.756;4.472;2022-11-18T03:35:32;7.05;;;3.53;;
8831;SDS011;4452;50.756;4.472;2022-11-18T03:38:22;13.38;;;4.30;;
8831;SDS011;4452;50.756;4.472;2022-11-18T03:40:51;9.55;;;4.10;;
8831;SDS011;4452;50.756;4.472;2022-11-18T03:43:22;14.40;;;4.18;;
8831;SDS011;4452;50.756;4.472;2022-11-18T03:45:52;7.20;;;3.55;;
8831;SDS011;4452;50.756;4.472;2022-11-18T03:48:24;5.95;;;3.28;;
8831;SDS011;4452;50.756;4.472;2022-11-18T03:50:58;9.00;;;3.97;;
8831;SDS011;4452;50.756;4.472;2022-11-18T03:53:27;8.35;;;3.22;;
8831;SDS011;4452;50.756;4.472;2022-11-18T03:55:59;10.10;;;3.05;;
8831;SDS011;4452;50.756;4.472;2022-11-18T03:58:30;8.85;;;3.75;;
8831;SDS011;4452;50.756;4.472;2022-11-18T04:03:37;4.68;;;2.70;;
8831;SDS011;4452;50.756;4.472;2022-11-18T04:06:04;3.25;;;2.35;;
8831;SDS011;4452;50.756;4.472;2022-11-18T04:08:39;12.65;;;3.90;;
8831;SDS011;4452;50.756;4.472;2022-11-18T04:11:08;7.57;;;2.58;;
8831;SDS011;4452;50.756;4.472;2022-11-18T04:14:02;13.30;;;3.63;;
8831;SDS011;4452;50.756;4.472;2022-11-18T04:16:30;7.55;;;3.15;;
8831;SDS011;4452;50.756;4.472;2022-11-18T04:19:02;10.32;;;3.88;;
8831;SDS011;4452;50.756;4.472;2022-11-18T04:21:30;6.10;;;3.30;;
8831;SDS011;4452;50.756;4.472;2022-11-18T04:23:58;5.63;;;2.95;;
8831;SDS011;4452;50.756;4.472;2022-11-18T04:26:27;4.65;;;3.00;;
8831;SDS011;4452;50.756;4.472;2022-11-18T04:28:56;9.25;;;4.20;;
8831;SDS011;4452;50.756;4.472;2022-11-18T04:31:24;4.88;;;3.03;;
8831;SDS011;4452;50.756;4.472;2022-11-18T04:33:49;10.40;;;4.22;;
8831;SDS011;4452;50.756;4.472;2022-11-18T04:36:15;11.80;;;4.45;;
8831;SDS011;4452;50.756;4.472;2022-11-18T04:38:41;10.20;;;5.00;;
8831;SDS011;4452;50.756;4.472;2022-11-18T04:41:06;8.35;;;4.78;;
8831;SDS011;4452;50.756;4.472;2022-11-18T04:43:32;11.52;;;4.10;;
8831;SDS011;4452;50.756;4.472;2022-11-18T04:45:57;11.73;;;4.72;;
8831;SDS011;4452;50.756;4.472;2022-11-18T04:48:23;11.88;;;4.53;;
8831;SDS011;4452;50.756;4.472;2022-11-18T04:50:48;8.15;;;3.58;;
8831;SDS011;4452;50.756;4.472;2022-11-18T04:53:14;27.75;;;6.55;;
8831;SDS011;4452;50.756;4.472;2022-11-18T04:55:39;16.27;;;4.68;;
8831;SDS011;4452;50.756;4.472;2022-11-18T04:58:05;11.77;;;3.65;;
8831;SDS011;4452;50.756;4.472;2022-11-18T05:00:31;6.57;;;3.88;;
8831;SDS011;4452;50.756;4.472;2022-11-18T05:02:56;7.93;;;4.05;;
8831;SDS011;4452;50.756;4.472;2022-11-18T05:05:22;11.40;;;4.85;;
8831;SDS011;4452;50.756;4.472;2022-11-18T05:07:48;11.85;;;3.40;;
8831;SDS011;4452;50.756;4.472;2022-11-18T05:10:15;8.77;;;2.17;;
8831;SDS011;4452;50.756;4.472;2022-11-18T05:12:40;14.05;;;4.15;;
8831;SDS011;4452;50.756;4.472;2022-11-18T05:15:16;7.38;;;3.30;;
8831;SDS011;4452;50.756;4.472;2022-11-18T05:17:43;14.65;;;4.97;;
8831;SDS011;4452;50.756;4.472;2022-11-18T05:20:10;7.63;;;3.30;;
8831;SDS011;4452;50.756;4.472;2022-11-18T05:22:36;11.55;;;4.20;;
8831;SDS011;4452;50.756;4.472;2022-11-18T05:25:02;4.72;;;3.05;;
8831;SDS011;4452;50.756;4.472;2022-11-18T05:27:28;11.23;;;4.82;;
8831;SDS011;4452;50.756;4.472;2022-11-18T05:29:54;7.95;;;3.72;;
8831;SDS011;4452;50.756;4.472;2022-11-18T05:32:19;6.53;;;3.08;;
8831;SDS011;4452;50.756;4.472;2022-11-18T05:34:45;11.25;;;4.43;;
8831;SDS011;4452;50.756;4.472;2022-11-18T05:37:11;10.95;;;4.57;;
8831;SDS011;4452;50.756;4.472;2022-11-18T05:39:37;5.30;;;2.85;;
8831;SDS011;4452;50.756;4.472;2022-11-18T05:42:02;19.90;;;6.13;;
8831;SDS011;4452;50.756;4.472;2022-11-18T05:44:47;12.73;;;4.82;;
8831;SDS011;4452;50.756;4.472;2022-11-18T05:47:14;19.55;;;5.25;;
8831;SDS011;4452;50.756;4.472;2022-11-18T05:49:39;8.77;;;3.78;;
8831;SDS011;4452;50.756;4.472;2022-11-18T05:52:05;11.13;;;3.58;;
8831;SDS011;4452;50.756;4.472;2022-11-18T05:54:30;7.85;;;4.45;;
8831;SDS011;4452;50.756;4.472;2022-11-18T05:56:56;13.32;;;4.38;;
8831;SDS011;4452;50.756;4.472;2022-11-18T05:59:22;4.53;;;2.90;;
8831;SDS011;4452;50.756;4.472;2022-11-18T06:10:05;6.82;;;3.13;;
8831;SDS011;4452;50.756;4.472;2022-11-18T06:12:36;5.53;;;3.47;;
8831;SDS011;4452;50.756;4.472;2022-11-18T06:17:44;20.10;;;5.47;;
8831;SDS011;4452;50.756;4.472;2022-11-18T06:20:17;9.65;;;4.65;;
8831;SDS011;4452;50.756;4.472;2022-11-18T06:22:45;11.23;;;3.90;;
8831;SDS011;4452;50.756;4.472;2022-11-18T06:25:15;14.00;;;4.65;;
8831;SDS011;4452;50.756;4.472;2022-11-18T06:27:42;13.57;;;5.28;;
8831;SDS011;4452;50.756;4.472;2022-11-18T06:30:09;9.80;;;4.00;;
8831;SDS011;4452;50.756;4.472;2022-11-18T06:32:37;15.73;;;5.07;;
8831;SDS011;4452;50.756;4.472;2022-11-18T06:35:02;4.85;;;2.80;;
8831;SDS011;4452;50.756;4.472;2022-11-18T06:37:28;23.65;;;5.32;;
8831;SDS011;4452;50.756;4.472;2022-11-18T06:39:54;16.95;;;5.10;;
8831;SDS011;4452;50.756;4.472;2022-11-18T06:42:19;10.60;;;4.38;;
8831;SDS011;4452;50.756;4.472;2022-11-18T06:45:04;13.40;;;5.15;;
8831;SDS011;4452;50.756;4.472;2022-11-18T06:47:30;11.45;;;4.90;;
8831;SDS011;4452;50.756;4.472;2022-11-18T06:49:55;19.95;;;5.07;;
8831;SDS011;4452;50.756;4.472;2022-11-18T06:52:21;28.42;;;6.18;;
8831;SDS011;4452;50.756;4.472;2022-11-18T06:54:47;14.95;;;5.60;;
8831;SDS011;4452;50.756;4.472;2022-11-18T06:57:13;16.33;;;6.22;;
8831;SDS011;4452;50.756;4.472;2022-11-18T06:59:39;9.38;;;3.85;;
8831;SDS011;4452;50.756;4.472;2022-11-18T07:02:05;18.95;;;5.43;;
8831;SDS011;4452;50.756;4.472;2022-11-18T07:04:31;16.02;;;5.90;;
8831;SDS011;4452;50.756;4.472;2022-11-18T07:06:58;13.35;;;5.53;;
8831;SDS011;4452;50.756;4.472;2022-11-18T07:09:24;21.85;;;5.85;;
8831;SDS011;4452;50.756;4.472;2022-11-18T07:11:50;11.65;;;5.10;;
8831;SDS011;4452;50.756;4.472;2022-11-18T07:14:16;15.60;;;5.38;;
8831;SDS011;4452;50.756;4.472;2022-11-18T07:16:41;27.25;;;4.13;;
8831;SDS011;4452;50.756;4.472;2022-11-18T07:19:11;17.00;;;3.65;;
8831;SDS011;4452;50.756;4.472;2022-11-18T07:21:37;11.93;;;4.63;;
8831;SDS011;4452;50.756;4.472;2022-11-18T07:24:04;20.05;;;5.55;;
8831;SDS011;4452;50.756;4.472;2022-11-18T07:26:32;13.35;;;5.10;;
8831;SDS011;4452;50.756;4.472;2022-11-18T07:28:58;6.10;;;2.75;;
8831;SDS011;4452;50.756;4.472;2022-11-18T07:31:23;10.20;;;3.83;;
8831;SDS011;4452;50.756;4.472;2022-11-18T07:33:50;12.75;;;5.00;;
8831;SDS011;4452;50.756;4.472;2022-11-18T07:36:22;23.30;;;5.22;;
8831;SDS011;4452;50.756;4.472;2022-11-18T07:38:50;8.52;;;3.78;;
8831;SDS011;4452;50.756;4.472;2022-11-18T07:41:18;15.98;;;4.38;;
8831;SDS011;4452;50.756;4.472;2022-11-18T07:43:46;11.95;;;4.68;;
8831;SDS011;4452;50.756;4.472;2022-11-18T07:48:49;19.23;;;5.97;;
8831;SDS011;4452;50.756;4.472;2022-11-18T07:51:16;10.57;;;4.28;;
8831;SDS011;4452;50.756;4.472;2022-11-18T07:53:43;13.20;;;4.00;;
8831;SDS011;4452;50.756;4.472;2022-11-18T07:56:09;7.45;;;3.40;;
8831;SDS011;4452;50.756;4.472;2022-11-18T07:58:36;10.13;;;3.65;;
8831;SDS011;4452;50.756;4.472;2022-11-18T08:01:08;9.32;;;2.78;;
8831;SDS011;4452;50.756;4.472;2022-11-18T08:06:01;9.63;;;4.13;;
8831;SDS011;4452;50.756;4.472;2022-11-18T08:08:27;10.07;;;3.10;;
8831;SDS011;4452;50.756;4.472;2022-11-18T08:11:00;13.55;;;3.90;;
8831;SDS011;4452;50.756;4.472;2022-11-18T08:13:29;16.40;;;4.93;;
8831;SDS011;4452;50.756;4.472;2022-11-18T08:15:55;7.00;;;3.08;;
8831;SDS011;4452;50.756;4.472;2022-11-18T08:18:21;6.50;;;3.10;;
8831;SDS011;4452;50.756;4.472;2022-11-18T08:20:47;5.35;;;2.53;;
8831;SDS011;4452;50.756;4.472;2022-11-18T08:23:13;7.65;;;3.08;;
8831;SDS011;4452;50.756;4.472;2022-11-18T08:25:40;7.35;;;3.70;;
8831;SDS011;4452;50.756;4.472;2022-11-18T08:28:07;7.75;;;3.40;;
8831;SDS011;4452;50.756;4.472;2022-11-18T08:30:33;4.60;;;2.78;;
8831;SDS011;4452;50.756;4.472;2022-11-18T08:32:59;16.67;;;3.78;;
8831;SDS011;4452;50.756;4.472;2022-11-18T08:35:26;7.00;;;3.47;;
8831;SDS011;4452;50.756;4.472;2022-11-18T08:37:52;11.43;;;3.58;;
8831;SDS011;4452;50.756;4.472;2022-11-18T08:40:18;3.92;;;2.55;;
8831;SDS011;4452;50.756;4.472;2022-11-18T08:42:44;10.52;;;4.30;;
8831;SDS011;4452;50.756;4.472;2022-11-18T08:45:09;5.28;;;3.17;;
8831;SDS011;4452;50.756;4.472;2022-11-18T08:47:36;14.60;;;4.05;;
8831;SDS011;4452;50.756;4.472;2022-11-18T08:50:03;12.48;;;3.28;;
8831;SDS011;4452;50.756;4.472;2022-11-18T08:52:29;11.77;;;4.65;;
8831;SDS011;4452;50.756;4.472;2022-11-18T08:54:55;12.27;;;4.35;;
8831;SDS011;4452;50.756;4.472;2022-11-18T08:57:21;12.05;;;4.50;;
8831;SDS011;4452;50.756;4.472;2022-11-18T08:59:46;6.35;;;4.15;;
8831;SDS011;4452;50.756;4.472;2022-11-18T09:02:13;4.57;;;2.88;;
8831;SDS011;4452;50.756;4.472;2022-11-18T09:04:40;4.80;;;3.00;;
8831;SDS011;4452;50.756;4.472;2022-11-18T09:07:05;8.95;;;3.75;;
8831;SDS011;4452;50.756;4.472;2022-11-18T09:09:31;7.20;;;2.85;;
8831;SDS011;4452;50.756;4.472;2022-11-18T09:11:57;8.20;;;4.00;;
8831;SDS011;4452;50.756;4.472;2022-11-18T09:14:22;16.52;;;3.42;;
8831;SDS011;4452;50.756;4.472;2022-11-18T09:16:48;7.03;;;3.22;;
8831;SDS011;4452;50.756;4.472;2022-11-18T09:19:14;6.22;;;2.60;;
8831;SDS011;4452;50.756;4.472;2022-11-18T09:21:41;8.77;;;2.80;;
8831;SDS011;4452;50.756;4.472;2022-11-18T09:24:06;3.95;;;2.28;;
8831;SDS011;4452;50.756;4.472;2022-11-18T09:26:32;4.53;;;2.53;;
8831;SDS011;4452;50.756;4.472;2022-11-18T09:28:58;6.63;;;2.17;;
8831;SDS011;4452;50.756;4.472;2022-11-18T09:31:24;5.45;;;2.67;;
8831;SDS011;4452;50.756;4.472;2022-11-18T09:33:49;8.60;;;3.05;;
8831;SDS011;4452;50.756;4.472;2022-11-18T09:36:16;6.65;;;3.00;;
8831;SDS011;4452;50.756;4.472;2022-11-18T09:38:47;7.70;;;2.72;;
8831;SDS011;4452;50.756;4.472;2022-11-18T09:49:27;6.53;;;2.50;;
8831;SDS011;4452;50.756;4.472;2022-11-18T09:52:00;5.20;;;2.70;;
8831;SDS011;4452;50.756;4.472;2022-11-18T09:54:35;3.90;;;2.30;;
8831;SDS011;4452;50.756;4.472;2022-11-18T09:57:02;3.47;;;2.05;;
8831;SDS011;4452;50.756;4.472;2022-11-18T09:59:34;7.57;;;2.50;;
8831;SDS011;4452;50.756;4.472;2022-11-18T10:04:37;9.63;;;2.38;;
8831;SDS011;4452;50.756;4.472;2022-11-18T10:07:05;4.53;;;2.60;;
8831;SDS011;4452;50.756;4.472;2022-11-18T10:09:40;6.47;;;2.40;;
8831;SDS011;4452;50.756;4.472;2022-11-18T10:14:47;4.72;;;2.65;;
8831;SDS011;4452;50.756;4.472;2022-11-18T10:22:51;3.38;;;2.20;;
8831;SDS011;4452;50.756;4.472;2022-11-18T10:25:20;6.43;;;2.65;;
8831;SDS011;4452;50.756;4.472;2022-11-18T10:27:47;9.30;;;2.20;;
8831;SDS011;4452;50.756;4.472;2022-11-18T10:30:18;5.65;;;2.67;;
8831;SDS011;4452;50.756;4.472;2022-11-18T10:33:02;9.10;;;2.88;;
8831;SDS011;4452;50.756;4.472;2022-11-18T10:35:40;2.75;;;2.25;;
8831;SDS011;4452;50.756;4.472;2022-11-18T10:38:19;5.95;;;2.00;;
8831;SDS011;4452;50.756;4.472;2022-11-18T10:51:34;4.15;;;2.25;;
8831;SDS011;4452;50.756;4.472;2022-11-18T10:54:29;8.82;;;2.80;;
8831;SDS011;4452;50.756;4.472;2022-11-18T10:59:48;6.97;;;2.38;;
8831;SDS011;4452;50.756;4.472;2022-11-18T11:04:48;3.63;;;1.65;;
8831;SDS011;4452;50.756;4.472;2022-11-18T11:09:40;5.45;;;1.45;;
8831;SDS011;4452;50.756;4.472;2022-11-18T11:12:13;2.60;;;1.65;;
8831;SDS011;4452;50.756;4.472;2022-11-18T11:17:25;3.05;;;1.48;;
8831;SDS011;4452;50.756;4.472;2022-11-18T11:20:00;3.17;;;1.80;;
8831;SDS011;4452;50.756;4.472;2022-11-18T11:22:25;3.53;;;1.60;;
8831;SDS011;4452;50.756;4.472;2022-11-18T11:24:52;4.05;;;1.73;;
8831;SDS011;4452;50.756;4.472;2022-11-18T11:30:08;5.68;;;1.80;;
8831;SDS011;4452;50.756;4.472;2022-11-18T11:44:00;4.72;;;1.65;;
8831;SDS011;4452;50.756;4.472;2022-11-18T12:12:54;5.30;;;1.63;;
8831;SDS011;4452;50.756;4.472;2022-11-18T12:18:12;5.60;;;1.85;;
8831;SDS011;4452;50.756;4.472;2022-11-18T12:21:02;3.78;;;1.85;;
8831;SDS011;4452;50.756;4.472;2022-11-18T12:23:29;6.18;;;1.95;;
8831;SDS011;4452;50.756;4.472;2022-11-18T12:28:27;5.13;;;1.63;;
8831;SDS011;4452;50.756;4.472;2022-11-18T12:34:02;4.03;;;1.60;;
8831;SDS011;4452;50.756;4.472;2022-11-18T12:36:33;7.75;;;2.10;;
8831;SDS011;4452;50.756;4.472;2022-11-18T12:41:52;5.93;;;2.55;;
8831;SDS011;4452;50.756;4.472;2022-11-18T12:44:50;3.83;;;1.90;;
8831;SDS011;4452;50.756;4.472;2022-11-18T12:50:08;4.18;;;1.95;;
8831;SDS011;4452;50.756;4.472;2022-11-18T12:55:02;7.25;;;2.10;;
8831;SDS011;4452;50.756;4.472;2022-11-18T12:57:39;7.75;;;2.10;;
8831;SDS011;4452;50.756;4.472;2022-11-18T13:00:17;4.80;;;2.35;;
8831;SDS011;4452;50.756;4.472;2022-11-18T13:02:50;11.02;;;2.35;;
8831;SDS011;4452;50.756;4.472;2022-11-18T13:05:21;6.05;;;2.40;;
8831;SDS011;4452;50.756;4.472;2022-11-18T13:08:09;9.35;;;2.78;;
8831;SDS011;4452;50.756;4.472;2022-11-18T13:10:53;9.27;;;2.30;;
8831;SDS011;4452;50.756;4.472;2022-11-18T13:13:41;9.25;;;2.45;;
8831;SDS011;4452;50.756;4.472;2022-11-18T13:16:16;4.93;;;2.38;;
8831;SDS011;4452;50.756;4.472;2022-11-18T13:19:04;10.68;;;2.55;;
8831;SDS011;4452;50.756;4.472;2022-11-18T13:21:30;4.70;;;2.67;;
8831;SDS011;4452;50.756;4.472;2022-11-18T13:24:16;5.78;;;1.90;;
8831;SDS011;4452;50.756;4.472;2022-11-18T13:26:43;6.45;;;2.05;;
8831;SDS011;4452;50.756;4.472;2022-11-18T13:32:22;12.50;;;2.90;;
8831;SDS011;4452;50.756;4.472;2022-11-18T13:34:50;8.48;;;2.45;;
8831;SDS011;4452;50.756;4.472;2022-11-18T13:37:36;6.15;;;2.00;;
8831;SDS011;4452;50.756;4.472;2022-11-18T13:40:30;7.85;;;2.70;;
8831;SDS011;4452;50.756;4.472;2022-11-18T13:45:29;3.45;;;1.83;;
8831;SDS011;4452;50.756;4.472;2022-11-18T13:47:59;8.65;;;2.30;;
8831;SDS011;4452;50.756;4.472;2022-11-18T13:50:37;6.87;;;2.10;;
8831;SDS011;4452;50.756;4.472;2022-11-18T13:53:08;4.13;;;1.88;;
8831;SDS011;4452;50.756;4.472;2022-11-18T13:55:55;9.23;;;1.98;;
8831;SDS011;4452;50.756;4.472;2022-11-18T14:00:59;3.15;;;2.10;;
8831;SDS011;4452;50.756;4.472;2022-11-18T14:06:23;11.57;;;2.70;;
8831;SDS011;4452;50.756;4.472;2022-11-18T14:08:49;6.47;;;2.35;;
8831;SDS011;4452;50.756;4.472;2022-11-18T14:11:33;4.45;;;2.22;;
8831;SDS011;4452;50.756;4.472;2022-11-18T14:14:03;3.50;;;1.90;;
8831;SDS011;4452;50.756;4.472;2022-11-18T14:19:00;10.10;;;2.63;;
8831;SDS011;4452;50.756;4.472;2022-11-18T14:21:27;9.70;;;3.38;;
8831;SDS011;4452;50.756;4.472;2022-11-18T14:23:55;8.70;;;3.20;;
8831;SDS011;4452;50.756;4.472;2022-11-18T14:26:28;13.35;;;3.47;;
8831;SDS011;4452;50.756;4.472;2022-11-18T14:28:57;6.13;;;2.63;;
8831;SDS011;4452;50.756;4.472;2022-11-18T14:31:30;3.53;;;2.53;;
8831;SDS011;4452;50.756;4.472;2022-11-18T14:36:31;13.23;;;2.83;;
8831;SDS011;4452;50.756;4.472;2022-11-18T14:38:57;6.20;;;2.45;;
8831;SDS011;4452;50.756;4.472;2022-11-18T14:41:23;5.30;;;2.40;;
8831;SDS011;4452;50.756;4.472;2022-11-18T14:44:10;11.18;;;2.95;;
8831;SDS011;4452;50.756;4.472;2022-11-18T14:46:41;13.00;;;2.90;;
8831;SDS011;4452;50.756;4.472;2022-11-18T14:49:15;7.43;;;2.50;;
8831;SDS011;4452;50.756;4.472;2022-11-18T14:51:42;13.63;;;2.97;;
8831;SDS011;4452;50.756;4.472;2022-11-18T14:54:12;6.68;;;2.67;;
8831;SDS011;4452;50.756;4.472;2022-11-18T14:56:39;8.98;;;3.15;;
8831;SDS011;4452;50.756;4.472;2022-11-18T14:59:05;9.40;;;2.95;;
8831;SDS011;4452;50.756;4.472;2022-11-18T15:01:31;8.07;;;2.67;;
8831;SDS011;4452;50.756;4.472;2022-11-18T15:03:56;9.30;;;2.97;;
8831;SDS011;4452;50.756;4.472;2022-11-18T15:06:22;4.93;;;2.00;;
8831;SDS011;4452;50.756;4.472;2022-11-18T15:08:50;9.93;;;3.50;;
8831;SDS011;4452;50.756;4.472;2022-11-18T15:11:19;8.40;;;3.00;;
8831;SDS011;4452;50.756;4.472;2022-11-18T15:13:46;10.63;;;3.08;;
8831;SDS011;4452;50.756;4.472;2022-11-18T15:16:22;5.97;;;2.42;;
8831;SDS011;4452;50.756;4.472;2022-11-18T15:18:54;7.60;;;2.63;;
8831;SDS011;4452;50.756;4.472;2022-11-18T15:21:23;4.18;;;2.40;;
8831;SDS011;4452;50.756;4.472;2022-11-18T15:23:49;4.90;;;2.63;;
8831;SDS011;4452;50.756;4.472;2022-11-18T15:26:22;9.10;;;2.75;;
8831;SDS011;4452;50.756;4.472;2022-11-18T15:28:50;8.07;;;2.20;;
8831;SDS011;4452;50.756;4.472;2022-11-18T15:31:17;6.68;;;3.03;;
8831;SDS011;4452;50.756;4.472;2022-11-18T15:33:44;6.65;;;2.75;;
8831;SDS011;4452;50.756;4.472;2022-11-18T15:36:14;8.02;;;2.40;;
8831;SDS011;4452;50.756;4.472;2022-11-18T15:38:42;7.38;;;2.55;;
8831;SDS011;4452;50.756;4.472;2022-11-18T15:41:15;4.03;;;1.85;;
8831;SDS011;4452;50.756;4.472;2022-11-18T15:43:43;3.05;;;1.75;;
8831;SDS011;4452;50.756;4.472;2022-11-18T15:46:10;7.70;;;2.60;;
8831;SDS011;4452;50.756;4.472;2022-11-18T15:48:38;4.03;;;2.28;;
8831;SDS011;4452;50.756;4.472;2022-11-18T15:51:06;9.13;;;2.70;;
8831;SDS011;4452;50.756;4.472;2022-11-18T15:53:34;7.57;;;1.85;;
8831;SDS011;4452;50.756;4.472;2022-11-18T15:58:58;11.45;;;3.35;;
8831;SDS011;4452;50.756;4.472;2022-11-18T16:01:27;7.68;;;2.35;;
8831;SDS011;4452;50.756;4.472;2022-11-18T16:03:58;7.82;;;3.65;;
8831;SDS011;4452;50.756;4.472;2022-11-18T16:06:24;8.27;;;2.30;;
8831;SDS011;4452;50.756;4.472;2022-11-18T16:08:49;5.90;;;2.13;;
8831;SDS011;4452;50.756;4.472;2022-11-18T16:11:16;4.68;;;1.52;;
8831;SDS011;4452;50.756;4.472;2022-11-18T16:14:04;5.38;;;1.98;;
8831;SDS011;4452;50.756;4.472;2022-11-18T16:16:35;8.18;;;2.80;;
8831;SDS011;4452;50.756;4.472;2022-11-18T16:19:03;5.95;;;2.22;;
8831;SDS011;4452;50.756;4.472;2022-11-18T16:21:31;6.97;;;2.35;;
8831;SDS011;4452;50.756;4.472;2022-11-18T16:24:00;5.03;;;2.45;;
8831;SDS011;4452;50.756;4.472;2022-11-18T16:26:27;3.22;;;2.00;;
8831;SDS011;4452;50.756;4.472;2022-11-18T16:28:55;6.30;;;2.35;;
8831;SDS011;4452;50.756;4.472;2022-11-18T16:31:20;5.35;;;2.30;;
8831;SDS011;4452;50.756;4.472;2022-11-18T16:34:05;9.50;;;2.95;;
8831;SDS011;4452;50.756;4.472;2022-11-18T16:36:35;6.32;;;2.28;;
8831;SDS011;4452;50.756;4.472;2022-11-18T16:39:03;3.90;;;2.30;;
8831;SDS011;4452;50.756;4.472;2022-11-18T16:41:33;4.03;;;2.67;;
8831;SDS011;4452;50.756;4.472;2022-11-18T16:44:00;12.07;;;2.80;;
8831;SDS011;4452;50.756;4.472;2022-11-18T16:46:28;4.57;;;2.17;;
8831;SDS011;4452;50.756;4.472;2022-11-18T16:48:55;6.95;;;2.83;;
8831;SDS011;4452;50.756;4.472;2022-11-18T16:51:23;7.35;;;2.35;;
8831;SDS011;4452;50.756;4.472;2022-11-18T16:53:53;8.63;;;3.28;;
8831;SDS011;4452;50.756;4.472;2022-11-18T16:56:21;5.45;;;2.67;;
8831;SDS011;4452;50.756;4.472;2022-11-18T16:58:49;6.80;;;3.50;;
8831;SDS011;4452;50.756;4.472;2022-11-18T17:01:19;3.20;;;2.38;;
8831;SDS011;4452;50.756;4.472;2022-11-18T17:03:44;6.82;;;3.05;;
8831;SDS011;4452;50.756;4.472;2022-11-18T17:06:10;8.35;;;3.38;;
8831;SDS011;4452;50.756;4.472;2022-11-18T17:08:36;5.00;;;3.00;;
8831;SDS011;4452;50.756;4.472;2022-11-18T17:11:05;12.23;;;3.10;;
8831;SDS011;4452;50.756;4.472;2022-11-18T17:13:35;9.00;;;3.55;;
8831;SDS011;4452;50.756;4.472;2022-11-18T17:16:02;5.53;;;2.85;;
8831;SDS011;4452;50.756;4.472;2022-11-18T17:18:29;11.55;;;3.47;;
8831;SDS011;4452;50.756;4.472;2022-11-18T17:20:55;9.15;;;3.45;;
8831;SDS011;4452;50.756;4.472;2022-11-18T17:23:20;10.63;;;2.88;;
8831;SDS011;4452;50.756;4.472;2022-11-18T17:25:46;5.28;;;3.95;;
8831;SDS011;4452;50.756;4.472;2022-11-18T17:28:11;10.32;;;5.13;;
8831;SDS011;4452;50.756;4.472;2022-11-18T17:30:37;11.07;;;3.47;;
8831;SDS011;4452;50.756;4.472;2022-11-18T17:33:02;6.95;;;3.35;;
8831;SDS011;4452;50.756;4.472;2022-11-18T17:35:28;8.02;;;3.83;;
8831;SDS011;4452;50.756;4.472;2022-11-18T17:37:54;8.40;;;4.13;;
8831;SDS011;4452;50.756;4.472;2022-11-18T17:40:19;7.20;;;4.00;;
8831;SDS011;4452;50.756;4.472;2022-11-18T17:42:45;11.57;;;4.68;;
8831;SDS011;4452;50.756;4.472;2022-11-18T17:45:13;7.38;;;3.92;;
8831;SDS011;4452;50.756;4.472;2022-11-18T17:47:39;9.63;;;4.95;;
8831;SDS011;4452;50.756;4.472;2022-11-18T17:50:04;12.15;;;4.15;;
8831;SDS011;4452;50.756;4.472;2022-11-18T17:52:30;5.38;;;3.30;;
8831;SDS011;4452;50.756;4.472;2022-11-18T17:54:56;4.10;;;2.95;;